Time;durP1;ratioP1;P1;durP2;ratioP2;P2;SDS_P1;SDS_P2;PMS_P1;PMS_P2;Temp;Humidity;BMP_temperature;BMP_pressure;BME280_temperature;BME280_humidity;BME280_pressure;Samples;Min_cycle;Max_cycle;Signal;HPM_P1;HPM_P2
2023/01/02 00:01:11;;;;;;;10.05;7.40;;;;;;;10.06;100.00;96728.78;5054873;28;20075;-39
2023/01/02 00:03:39;;;;;;;10.70;7.32;;;;;;;10.15;100.00;96727.13;5062957;28;20068;-40
2023/01/02 00:06:08;;;;;;;12.95;8.40;;;;;;;10.15;100.00;96728.00;5054588;28;20774;-41
2023/01/02 00:08:38;;;;;;;9.68;7.50;;;;;;;10.16;100.00;96731.47;5054929;28;20473;-39
2023/01/02 00:11:06;;;;;;;10.82;7.70;;;;;;;10.16;100.00;96728.81;5065371;28;20080;-48
2023/01/02 00:13:34;;;;;;;10.57;7.63;;;;;;;10.10;100.00;96724.09;5057441;28;20079;-46
2023/01/02 00:16:02;;;;;;;8.65;7.10;;;;;;;10.10;100.00;96721.44;5050124;28;20080;-41
2023/01/02 00:18:31;;;;;;;7.47;6.45;;;;;;;10.01;100.00;96730.16;5054111;28;20083;-40
2023/01/02 00:21:02;;;;;;;8.60;6.70;;;;;;;9.76;100.00;96721.75;5048671;28;20084;-40
2023/01/02 00:23:31;;;;;;;10.88;7.20;;;;;;;9.86;100.00;96711.25;5060468;28;20091;-45
2023/01/02 00:26:01;;;;;;;8.52;7.05;;;;;;;9.83;100.00;96717.63;5053041;28;20516;-40
2023/01/02 00:28:29;;;;;;;12.10;7.90;;;;;;;9.83;100.00;96712.34;5060704;28;20091;-41
2023/01/02 00:30:57;;;;;;;11.98;8.27;;;;;;;9.79;100.00;96708.34;5054403;28;20084;-38
2023/01/02 00:33:26;;;;;;;10.68;7.88;;;;;;;9.65;100.00;96703.44;5061133;28;20099;-40
2023/01/02 00:35:54;;;;;;;9.73;7.68;;;;;;;9.62;100.00;96706.31;5049794;28;20625;-38
2023/01/02 00:38:22;;;;;;;11.82;8.68;;;;;;;9.62;100.00;96701.06;5049167;28;20081;-37
2023/01/02 00:40:51;;;;;;;11.38;8.30;;;;;;;9.71;100.00;96695.84;5057454;28;20087;-41
2023/01/02 00:43:20;;;;;;;11.57;8.32;;;;;;;9.68;100.00;96700.53;5053396;28;20089;-40
2023/01/02 00:45:49;;;;;;;10.52;7.53;;;;;;;9.64;100.00;96704.41;5056006;28;20091;-38
2023/01/02 00:48:17;;;;;;;10.48;7.88;;;;;;;9.63;100.00;96698.28;5054234;28;20091;-40
2023/01/02 00:50:45;;;;;;;11.82;8.05;;;;;;;9.64;100.00;96693.88;5054652;28;20488;-40
2023/01/02 00:53:14;;;;;;;10.93;7.65;;;;;;;9.63;100.00;96703.56;5056717;28;20083;-42
2023/01/02 00:55:43;;;;;;;9.20;7.28;;;;;;;9.50;100.00;96692.44;5057022;28;20088;-42
2023/01/02 00:58:12;;;;;;;8.83;6.57;;;;;;;9.44;100.00;96695.59;5054866;28;20084;-37
2023/01/02 01:00:42;;;;;;;7.18;6.47;;;;;;;9.38;100.00;96704.00;5054907;28;20503;-41
2023/01/02 01:03:10;;;;;;;7.33;6.63;;;;;;;9.47;100.00;96709.31;5054908;28;20087;-46
2023/01/02 01:05:39;;;;;;;9.65;6.90;;;;;;;9.51;100.00;96708.09;5056148;28;20446;-44
2023/01/02 01:08:08;;;;;;;11.85;7.28;;;;;;;9.55;100.00;96705.19;5048269;28;20088;-37
2023/01/02 01:10:37;;;;;;;8.10;6.25;;;;;;;8.93;100.00;96704.31;5055830;28;20068;-43
2023/01/02 01:13:06;;;;;;;7.15;6.22;;;;;;;9.31;100.00;96701.06;5059242;28;20084;-43
2023/01/02 01:15:34;;;;;;;7.25;6.55;;;;;;;9.31;100.00;96705.50;5063392;28;20092;-37
2023/01/02 01:18:04;;;;;;;9.20;6.68;;;;;;;9.08;100.00;96700.38;5054617;28;20088;-44
2023/01/02 01:20:32;;;;;;;9.23;6.28;;;;;;;9.31;100.00;96713.38;5061054;28;20076;-40
2023/01/02 01:23:01;;;;;;;8.50;6.28;;;;;;;9.30;100.00;96715.19;5061642;28;20090;-43
2023/01/02 01:25:29;;;;;;;7.63;6.20;;;;;;;9.37;100.00;96720.78;5064195;28;20152;-39
2023/01/02 01:27:57;;;;;;;9.73;6.25;;;;;;;9.16;100.00;96718.16;5061315;28;20154;-45
2023/01/02 01:30:26;;;;;;;7.40;6.40;;;;;;;8.79;100.00;96713.34;5061983;28;20080;-41
2023/01/02 01:32:55;;;;;;;7.78;6.45;;;;;;;8.49;100.00;96712.25;5067254;28;20103;-45
2023/01/02 01:35:24;;;;;;;9.18;7.22;;;;;;;8.52;100.00;96705.94;5065856;28;20456;-38
2023/01/02 01:37:52;;;;;;;10.35;6.72;;;;;;;8.46;100.00;96703.78;5066560;28;20480;-42
2023/01/02 01:40:21;;;;;;;7.05;6.35;;;;;;;8.97;100.00;96708.34;5059711;28;20075;-39
2023/01/02 01:42:49;;;;;;;7.65;6.63;;;;;;;9.24;100.00;96703.38;5052600;28;20107;-39
2023/01/02 01:45:19;;;;;;;6.70;6.00;;;;;;;9.07;100.00;96705.78;5063464;28;20080;-42
2023/01/02 01:47:50;;;;;;;6.10;5.50;;;;;;;8.99;100.00;96709.88;5069070;28;20099;-40
2023/01/02 01:50:21;;;;;;;6.78;5.88;;;;;;;9.09;100.00;96704.69;5064056;28;20084;-38
2023/01/02 01:52:52;;;;;;;7.72;6.40;;;;;;;9.07;100.00;96708.41;5052499;28;20091;-38
2023/01/02 01:55:22;;;;;;;6.88;6.18;;;;;;;8.98;100.00;96707.38;5055601;28;20479;-43
2023/01/02 01:57:53;;;;;;;8.77;6.78;;;;;;;8.83;100.00;96706.84;5053972;28;20544;-42
2023/01/02 02:00:22;;;;;;;7.93;6.28;;;;;;;8.71;100.00;96702.63;5054667;28;20076;-46
2023/01/02 02:02:53;;;;;;;7.88;6.53;;;;;;;8.92;100.00;96697.38;5054478;28;20108;-38
2023/01/02 02:05:24;;;;;;;7.28;6.57;;;;;;;8.79;100.00;96687.88;5051769;28;20081;-41
2023/01/02 02:08:00;;;;;;;7.45;6.30;;;;;;;8.92;100.00;96686.88;5058462;28;20076;-40
2023/01/02 02:10:28;;;;;;;9.20;6.18;;;;;;;9.00;100.00;96685.25;5051346;28;20087;-38
2023/01/02 02:12:56;;;;;;;7.30;6.32;;;;;;;9.12;100.00;96688.66;5052815;28;20080;-38
2023/01/02 02:15:28;;;;;;;7.68;6.50;;;;;;;9.11;100.00;96686.97;5060010;28;20084;-40
2023/01/02 02:18:05;;;;;;;7.07;6.13;;;;;;;9.20;100.00;96686.19;5050549;28;20095;-38
2023/01/02 02:20:50;;;;;;;9.05;6.28;;;;;;;9.24;100.00;96692.03;5052513;28;20081;-42
2023/01/02 02:23:54;;;;;;;7.32;6.43;;;;;;;9.13;100.00;96697.38;5055441;28;20088;-49
2023/01/02 02:26:56;;;;;;;6.68;5.97;;;;;;;8.91;100.00;96693.91;5052378;28;20488;-46
2023/01/02 02:29:52;;;;;;;6.22;5.63;;;;;;;8.47;100.00;96701.06;5058125;28;20084;-41
2023/01/02 02:32:24;;;;;;;7.28;5.95;;;;;;;8.36;100.00;96695.78;5053131;28;20092;-38
2023/01/02 02:34:59;;;;;;;7.95;6.15;;;;;;;8.66;100.00;96689.84;5054363;28;20080;-44
2023/01/02 02:37:32;;;;;;;9.18;7.10;;;;;;;8.75;100.00;96683.00;5057543;28;20103;-37
2023/01/02 02:40:04;;;;;;;8.10;6.28;;;;;;;8.75;100.00;96683.84;5056937;28;20091;-44
2023/01/02 02:42:46;;;;;;;8.65;6.70;;;;;;;8.72;100.00;96673.56;5052541;28;20081;-49
2023/01/02 02:45:23;;;;;;;8.88;7.07;;;;;;;8.80;100.00;96679.00;5054841;28;20086;-45
2023/01/02 02:47:56;;;;;;;7.85;7.05;;;;;;;8.71;100.00;96682.44;5051614;28;20102;-39
2023/01/02 02:50:30;;;;;;;7.00;6.30;;;;;;;8.69;100.00;96680.88;5054575;28;20487;-38
2023/01/02 02:53:01;;;;;;;8.43;6.60;;;;;;;8.85;100.00;96676.03;5055704;28;20080;-40
2023/01/02 02:55:33;;;;;;;9.05;6.70;;;;;;;8.86;100.00;96682.94;5051933;28;20096;-41
2023/01/02 02:58:01;;;;;;;7.28;6.45;;;;;;;8.91;100.00;96670.25;5053948;28;20088;-43
2023/01/02 03:00:31;;;;;;;8.07;6.20;;;;;;;8.86;100.00;96669.78;5051248;28;20536;-43
2023/01/02 03:02:59;;;;;;;7.90;6.50;;;;;;;8.98;100.00;96670.53;5055472;28;20065;-38
2023/01/02 03:05:33;;;;;;;8.55;6.80;;;;;;;8.97;100.00;96664.44;5051644;28;20566;-42
2023/01/02 03:08:07;;;;;;;9.25;6.45;;;;;;;8.83;100.00;96654.25;5052647;28;20618;-42
2023/01/02 03:10:43;;;;;;;7.72;5.90;;;;;;;8.90;100.00;96658.03;5054330;28;20095;-37
2023/01/02 03:13:14;;;;;;;9.60;6.93;;;;;;;8.69;100.00;96658.06;5051596;28;20080;-38
2023/01/02 03:15:51;;;;;;;7.57;6.55;;;;;;;8.53;100.00;96649.75;5057990;28;20554;-45
2023/01/02 03:18:24;;;;;;;8.27;6.97;;;;;;;8.66;100.00;96660.09;5054578;28;20087;-40
2023/01/02 03:20:58;;;;;;;7.55;5.95;;;;;;;8.78;100.00;96653.84;5056333;28;20083;-44
2023/01/02 03:23:29;;;;;;;8.18;6.10;;;;;;;8.39;100.00;96647.44;5059781;28;20091;-43
2023/01/02 03:25:58;;;;;;;7.25;6.55;;;;;;;8.56;100.00;96645.09;5049550;28;20080;-40
2023/01/02 03:28:27;;;;;;;8.57;6.28;;;;;;;8.63;100.00;96639.31;5055023;28;20111;-41
2023/01/02 03:30:58;;;;;;;8.25;6.32;;;;;;;7.90;100.00;96639.13;5054529;28;20076;-46
2023/01/02 03:33:27;;;;;;;7.70;6.60;;;;;;;7.92;100.00;96636.38;5048920;28;20087;-39
2023/01/02 03:35:59;;;;;;;7.78;6.45;;;;;;;7.60;100.00;96640.63;5048467;28;20492;-41
2023/01/02 03:38:29;;;;;;;8.63;6.60;;;;;;;8.21;100.00;96637.47;5050603;28;20077;-42
2023/01/02 03:41:02;;;;;;;7.70;6.10;;;;;;;8.34;100.00;96634.66;5049322;28;20083;-49
2023/01/02 03:43:32;;;;;;;7.90;6.15;;;;;;;8.33;100.00;96623.31;5048373;28;20094;-38
2023/01/02 03:46:06;;;;;;;7.65;6.47;;;;;;;8.19;100.00;96622.78;5049034;28;20080;-45
2023/01/02 03:48:39;;;;;;;8.65;6.57;;;;;;;8.42;100.00;96620.91;5052327;28;20086;-38
2023/01/02 03:51:08;;;;;;;7.22;5.97;;;;;;;8.54;100.00;96617.28;5052184;28;20692;-41
2023/01/02 03:53:39;;;;;;;8.30;6.78;;;;;;;8.57;100.00;96627.53;5051549;28;20088;-41
2023/01/02 03:56:14;;;;;;;7.10;6.40;;;;;;;8.53;100.00;96628.72;5054384;28;20444;-47
2023/01/02 03:58:49;;;;;;;7.75;6.32;;;;;;;8.54;100.00;96628.63;5054871;28;20080;-43
2023/01/02 04:01:25;;;;;;;7.60;6.03;;;;;;;8.37;100.00;96625.72;5050997;28;20072;-39
2023/01/02 04:03:58;;;;;;;8.25;6.18;;;;;;;7.78;100.00;96630.44;5051459;28;20076;-39
2023/01/02 04:06:30;;;;;;;7.43;6.45;;;;;;;8.21;100.00;96628.75;5050364;28;20647;-39
2023/01/02 04:09:04;;;;;;;6.50;5.80;;;;;;;8.39;100.00;96626.44;5052540;28;20083;-46
2023/01/02 04:11:33;;;;;;;8.10;6.38;;;;;;;8.47;100.00;96629.28;5050963;28;20077;-39
2023/01/02 04:14:04;;;;;;;6.50;5.80;;;;;;;8.54;100.00;96622.53;5051581;28;20468;-44
2023/01/02 04:16:35;;;;;;;7.72;6.40;;;;;;;8.52;100.00;96627.91;5052115;28;20543;-47
2023/01/02 04:19:05;;;;;;;;;;;;;;;8.58;100.00;96634.47;5055682;28;20065;-52
2023/01/02 04:21:34;;;;;;;6.55;5.72;;;;;;;8.37;100.00;96625.72;5054517;28;19960;-49
2023/01/02 04:24:06;;;;;;;7.90;6.22;;;;;;;8.49;100.00;96627.34;5053560;28;20076;-42
2023/01/02 04:26:36;;;;;;;6.55;5.78;;;;;;;8.40;100.00;96622.88;5049335;28;20087;-42
2023/01/02 04:29:04;;;;;;;;;;;;;;;8.43;100.00;96623.44;5049989;28;20516;-41
2023/01/02 04:31:37;;;;;;;7.60;6.38;;;;;;;8.57;100.00;96622.28;5045795;28;19952;-41
2023/01/02 04:34:06;;;;;;;7.68;6.20;;;;;;;8.64;100.00;96627.88;5049823;28;20460;-41
2023/01/02 04:36:38;;;;;;;8.43;6.53;;;;;;;8.64;100.00;96633.13;5053362;28;20080;-40
2023/01/02 04:39:06;;;;;;;7.00;6.25;;;;;;;8.65;100.00;96622.47;5048705;28;20091;-42
2023/01/02 04:41:35;;;;;;;6.93;5.80;;;;;;;8.31;100.00;96624.41;5053408;28;20072;-40
2023/01/02 04:44:03;;;;;;;6.85;6.05;;;;;;;8.49;100.00;96624.69;5048729;28;20194;-38
2023/01/02 04:46:31;;;;;;;10.88;6.40;;;;;;;8.51;100.00;96630.69;5047926;28;20084;-40
2023/01/02 04:49:01;;;;;;;7.13;6.15;;;;;;;8.50;100.00;96631.66;5054951;28;20489;-38
2023/01/02 04:51:29;;;;;;;9.20;6.20;;;;;;;7.93;100.00;96638.88;5053422;28;20524;-38
2023/01/02 04:53:58;;;;;;;8.80;6.57;;;;;;;7.93;100.00;96644.13;5054644;28;20460;-38
2023/01/02 04:56:26;;;;;;;8.00;5.78;;;;;;;8.15;100.00;96635.31;5053900;28;20115;-39
2023/01/02 04:58:54;;;;;;;9.13;6.13;;;;;;;8.24;100.00;96641.63;5048684;28;20477;-48
2023/01/02 05:01:23;;;;;;;6.35;5.75;;;;;;;7.97;100.00;96645.53;5049962;28;20595;-44
2023/01/02 05:03:52;;;;;;;6.78;6.07;;;;;;;8.06;100.00;96638.72;5051831;28;20501;-38
2023/01/02 05:06:22;;;;;;;6.88;6.10;;;;;;;8.23;100.00;96642.59;5054875;28;20079;-40
2023/01/02 05:08:51;;;;;;;6.97;6.05;;;;;;;8.32;100.00;96641.84;5050733;28;20091;-45
2023/01/02 05:11:21;;;;;;;9.48;6.15;;;;;;;8.33;100.00;96646.97;5048978;28;20107;-45
2023/01/02 05:13:49;;;;;;;8.00;6.53;;;;;;;8.31;100.00;96654.13;5048467;28;20661;-46
2023/01/02 05:16:17;;;;;;;8.30;5.93;;;;;;;8.26;100.00;96653.69;5050379;28;20080;-43
2023/01/02 05:18:46;;;;;;;6.60;5.90;;;;;;;8.27;100.00;96657.16;5052400;28;20096;-46
2023/01/02 05:24:00;;;;;;;7.13;6.40;;;;;;;8.14;100.00;96662.56;5052590;28;20465;-42
2023/01/02 05:26:31;;;;;;;6.70;5.90;;;;;;;7.94;100.00;96653.66;5053837;28;20079;-47
2023/01/02 05:29:00;;;;;;;8.52;6.10;;;;;;;8.06;100.00;96663.19;5056379;28;20106;-39
2023/01/02 05:31:28;;;;;;;7.13;6.30;;;;;;;7.81;100.00;96680.09;5052424;28;20080;-42
2023/01/02 05:33:59;;;;;;;8.23;6.45;;;;;;;7.54;100.00;96672.59;5057096;28;20076;-38
2023/01/02 05:36:27;;;;;;;7.07;6.33;;;;;;;7.53;100.00;96675.31;5054597;28;20083;-40
2023/01/02 05:38:56;;;;;;;8.07;6.82;;;;;;;7.07;100.00;96664.00;5048375;28;20088;-50
2023/01/02 05:41:25;;;;;;;8.60;6.75;;;;;;;7.05;100.00;96665.06;5057251;28;20080;-42
2023/01/02 05:43:54;;;;;;;9.30;7.18;;;;;;;7.18;100.00;96664.97;5056583;28;20072;-38
2023/01/02 05:46:23;;;;;;;9.23;7.50;;;;;;;7.64;100.00;96667.47;5053415;28;20076;-44
2023/01/02 05:48:51;;;;;;;12.25;7.00;;;;;;;7.83;100.00;96669.44;5053386;28;20448;-40
2023/01/02 05:51:19;;;;;;;9.48;7.97;;;;;;;7.91;100.00;96674.06;5058872;28;20079;-42
2023/01/02 05:53:49;;;;;;;8.43;7.25;;;;;;;7.94;100.00;96668.59;5055872;28;20186;-38
2023/01/02 05:56:20;;;;;;;10.50;7.50;;;;;;;7.99;100.00;96676.94;5057310;28;20095;-41
2023/01/02 05:58:50;;;;;;;8.90;7.00;;;;;;;7.66;100.00;96673.41;5056509;28;20741;-42
2023/01/02 06:01:19;;;;;;;8.93;7.07;;;;;;;8.00;100.00;96675.97;5054228;28;20538;-40
2023/01/02 06:03:49;;;;;;;10.90;8.20;;;;;;;8.03;100.00;96679.19;5060019;28;21065;-41
2023/01/02 06:06:19;;;;;;;10.18;7.32;;;;;;;8.09;100.00;96670.81;5057357;28;20079;-44
2023/01/02 06:08:47;;;;;;;7.50;6.20;;;;;;;7.97;100.00;96684.09;5052120;28;20076;-49
2023/01/02 06:11:16;;;;;;;8.75;5.93;;;;;;;7.79;100.00;96681.16;5060096;28;20503;-44
2023/01/02 06:13:44;;;;;;;8.02;5.93;;;;;;;7.51;100.00;96678.09;5056649;28;20454;-39
2023/01/02 06:16:14;;;;;;;7.28;5.90;;;;;;;7.66;100.00;96683.06;5051156;28;20094;-42
2023/01/02 06:18:42;;;;;;;6.57;5.97;;;;;;;7.70;100.00;96679.25;5055475;28;20076;-42
2023/01/02 06:21:12;;;;;;;7.75;6.75;;;;;;;7.64;100.00;96685.84;5053098;28;20079;-41
2023/01/02 06:23:42;;;;;;;8.43;6.40;;;;;;;7.70;100.00;96690.59;5056435;28;20083;-46
2023/01/02 06:26:12;;;;;;;9.23;6.75;;;;;;;7.66;100.00;96681.28;5056187;28;20121;-44
2023/01/02 06:28:41;;;;;;;7.80;6.90;;;;;;;7.74;100.00;96689.41;5052737;28;20587;-47
2023/01/02 06:31:11;;;;;;;8.70;6.72;;;;;;;7.64;100.00;96672.72;5050414;28;20080;-38
2023/01/02 06:33:41;;;;;;;12.40;8.77;;;;;;;7.36;100.00;96671.41;5055919;28;20091;-47
2023/01/02 06:36:10;;;;;;;12.68;8.00;;;;;;;6.85;100.00;96667.44;5056815;28;20056;-42
2023/01/02 06:38:39;;;;;;;11.18;7.88;;;;;;;6.43;100.00;96674.09;5053283;28;20103;-45
2023/01/02 06:41:09;;;;;;;8.82;7.70;;;;;;;6.32;100.00;96669.66;5055348;28;20182;-41
2023/01/02 06:43:41;;;;;;;12.43;7.57;;;;;;;6.71;100.00;96665.03;5051254;28;20077;-42
2023/01/02 06:46:11;;;;;;;9.32;7.38;;;;;;;6.68;100.00;96675.75;5050817;28;20123;-38
2023/01/02 06:48:41;;;;;;;10.90;7.83;;;;;;;7.22;100.00;96667.22;5057490;28;20084;-47
2023/01/02 06:51:11;;;;;;;9.55;8.50;;;;;;;7.30;100.00;96672.72;5057481;28;20546;-41
2023/01/02 06:53:40;;;;;;;10.68;8.25;;;;;;;7.45;100.00;96677.72;5060085;28;20080;-39
2023/01/02 06:56:09;;;;;;;9.98;7.40;;;;;;;7.45;100.00;96681.19;5060892;28;20079;-40
2023/01/02 06:58:38;;;;;;;12.00;8.40;;;;;;;7.42;100.00;96665.69;5055903;28;20084;-38
2023/01/02 07:01:08;;;;;;;13.75;9.55;;;;;;;7.17;100.00;96679.88;5062341;28;20535;-41
2023/01/02 07:03:37;;;;;;;9.70;7.35;;;;;;;7.45;100.00;96672.47;5060786;28;20081;-38
2023/01/02 07:06:08;;;;;;;8.93;7.22;;;;;;;7.30;100.00;96669.28;5059689;28;20080;-42
2023/01/02 07:08:37;;;;;;;10.57;7.80;;;;;;;7.39;100.00;96671.16;5061683;28;20504;-37
2023/01/02 07:11:07;;;;;;;10.07;8.32;;;;;;;7.44;100.00;96666.41;5062530;28;20131;-43
2023/01/02 07:13:35;;;;;;;13.90;9.07;;;;;;;7.47;100.00;96681.09;5055590;28;20090;-44
2023/01/02 07:16:05;;;;;;;12.85;8.60;;;;;;;7.47;100.00;96678.47;5057738;28;20087;-43
2023/01/02 07:18:34;;;;;;;14.70;9.77;;;;;;;7.45;100.00;96675.94;5053597;28;20551;-38
2023/01/02 07:21:02;;;;;;;13.70;9.27;;;;;;;7.53;100.00;96680.56;5054555;28;20080;-43
2023/01/02 07:23:32;;;;;;;15.45;9.95;;;;;;;7.55;100.00;96678.69;5051647;28;20552;-45
2023/01/02 07:26:02;;;;;;;13.80;10.07;;;;;;;7.60;100.00;96676.50;5054526;28;20091;-42
2023/01/02 07:28:31;;;;;;;14.63;9.10;;;;;;;7.57;100.00;96682.00;5059238;28;20094;-38
2023/01/02 07:31:01;;;;;;;19.85;12.95;;;;;;;7.58;100.00;96684.53;5052875;28;20524;-43
2023/01/02 07:33:30;;;;;;;9.35;6.75;;;;;;;7.64;100.00;96687.59;5056902;28;20575;-40
2023/01/02 07:35:59;;;;;;;9.38;6.95;;;;;;;7.54;100.00;96687.50;5052959;28;20081;-41
2023/01/02 07:38:28;;;;;;;8.35;7.43;;;;;;;7.48;100.00;96690.63;5055480;28;20076;-38
2023/01/02 07:40:57;;;;;;;10.38;7.53;;;;;;;7.74;100.00;96691.16;5053922;28;20080;-41
2023/01/02 07:43:26;;;;;;;10.43;7.93;;;;;;;7.84;100.00;96678.97;5050395;28;20084;-39
2023/01/02 07:45:54;;;;;;;11.25;7.30;;;;;;;7.35;100.00;96685.47;5055735;28;20480;-39
2023/01/02 07:48:23;;;;;;;8.80;7.45;;;;;;;7.79;100.00;96689.88;5053296;28;20060;-40
2023/01/02 07:50:51;;;;;;;9.95;8.10;;;;;;;7.53;100.00;96699.78;5049311;28;20076;-40
2023/01/02 07:53:19;;;;;;;8.05;7.15;;;;;;;7.84;100.00;96708.72;5057064;28;20489;-42
2023/01/02 07:55:53;;;;;;;10.20;7.93;;;;;;;7.98;100.00;96704.13;5051342;28;20068;-44
2023/01/02 07:58:23;;;;;;;8.82;7.93;;;;;;;8.15;100.00;96708.88;5050882;28;20087;-39
2023/01/02 08:00:52;;;;;;;9.88;8.10;;;;;;;8.02;100.00;96705.59;5049750;28;20095;-40
2023/01/02 08:03:25;;;;;;;11.20;8.30;;;;;;;7.72;100.00;96714.09;5054813;28;20695;-49
2023/01/02 08:05:53;;;;;;;11.15;8.45;;;;;;;7.42;100.00;96706.81;5052434;28;20083;-43
2023/01/02 08:08:22;;;;;;;14.18;9.55;;;;;;;7.58;100.00;96702.88;5054975;28;20091;-45
2023/01/02 08:10:50;;;;;;;12.00;9.20;;;;;;;8.34;100.00;96692.47;5051873;28;20080;-44
2023/01/02 08:13:18;;;;;;;13.00;9.48;;;;;;;8.66;100.00;96697.75;5053563;28;20084;-41
2023/01/02 08:15:48;;;;;;;12.40;8.98;;;;;;;8.63;100.00;96690.09;5057204;28;20525;-41
2023/01/02 08:18:16;;;;;;;14.05;10.02;;;;;;;8.87;100.00;96687.22;5053165;28;20068;-39
2023/01/02 08:20:44;;;;;;;12.60;7.97;;;;;;;8.76;100.00;96701.28;5065372;28;20076;-39
2023/01/02 08:23:13;;;;;;;8.35;7.13;;;;;;;8.50;100.00;96700.81;5048440;28;20083;-44
2023/01/02 08:25:41;;;;;;;8.93;7.10;;;;;;;8.61;100.00;96707.81;5049654;28;20045;-40
2023/01/02 08:28:10;;;;;;;9.32;7.30;;;;;;;8.51;100.00;96709.53;5059506;28;20145;-46
2023/01/02 08:30:40;;;;;;;9.65;7.90;;;;;;;7.91;100.00;96724.81;5056671;28;20603;-46
2023/01/02 08:33:09;;;;;;;12.57;8.70;;;;;;;8.31;100.00;96711.13;5049473;28;20091;-45
2023/01/02 08:35:38;;;;;;;10.43;7.78;;;;;;;8.87;100.00;96707.44;5061396;28;20080;-38
2023/01/02 08:38:06;;;;;;;14.48;8.55;;;;;;;8.96;100.00;96715.41;5049441;28;20088;-46
2023/01/02 08:40:34;;;;;;;12.10;8.02;;;;;;;9.08;100.00;96710.88;5059549;28;20079;-42
2023/01/02 08:43:03;;;;;;;13.52;8.93;;;;;;;9.43;100.00;96721.09;5061955;28;20091;-40
2023/01/02 08:45:31;;;;;;;12.98;9.35;;;;;;;9.55;100.00;96727.09;5059577;28;20076;-41
2023/01/02 08:48:00;;;;;;;17.05;11.85;;;;;;;9.75;100.00;96725.38;5054561;28;20079;-40
2023/01/02 08:50:49;;;;;;;16.17;10.30;;;;;;;9.95;100.00;96729.75;5053254;28;20087;-39
2023/01/02 08:53:18;;;;;;;16.42;12.15;;;;;;;10.16;100.00;96723.56;5057446;28;20084;-38
2023/01/02 08:55:46;;;;;;;16.02;10.82;;;;;;;10.34;100.00;96719.31;5053405;28;20479;-39
2023/01/02 08:58:14;;;;;;;15.48;10.35;;;;;;;10.49;100.00;96719.72;5058368;28;20580;-39
2023/01/02 09:00:42;;;;;;;14.57;10.60;;;;;;;10.64;100.00;96721.00;5049645;28;20084;-40
2023/01/02 09:03:11;;;;;;;13.43;10.00;;;;;;;10.76;100.00;96726.13;5057640;28;20084;-38
2023/01/02 09:05:39;;;;;;;13.82;10.05;;;;;;;10.85;100.00;96727.94;5063972;28;20068;-38
2023/01/02 09:08:09;;;;;;;13.10;9.93;;;;;;;10.76;100.00;96736.69;5065729;28;20083;-44
2023/01/02 09:10:37;;;;;;;14.20;10.43;;;;;;;10.89;100.00;96739.88;5052184;28;20535;-38
2023/01/02 09:13:05;;;;;;;15.43;10.60;;;;;;;10.96;100.00;96738.34;5064416;28;20084;-43
2023/01/02 09:15:34;;;;;;;16.67;10.50;;;;;;;11.03;100.00;96733.34;5059485;28;20084;-41
2023/01/02 09:18:02;;;;;;;14.30;10.20;;;;;;;11.21;100.00;96728.16;5058108;28;20083;-41
2023/01/02 09:20:30;;;;;;;14.65;9.88;;;;;;;11.35;100.00;96739.09;5059450;28;20095;-44
2023/01/02 09:22:59;;;;;;;15.07;10.23;;;;;;;11.50;100.00;96731.59;5058102;28;20080;-38
2023/01/02 09:25:28;;;;;;;11.10;9.35;;;;;;;11.63;100.00;96732.09;5063264;28;20077;-42
2023/01/02 09:27:57;;;;;;;10.65;8.35;;;;;;;11.79;100.00;96734.13;5060757;28;20076;-44
2023/01/02 09:30:25;;;;;;;18.17;11.40;;;;;;;11.85;100.00;96740.66;5059680;28;20684;-42
2023/01/02 09:32:54;;;;;;;10.93;8.85;;;;;;;11.94;100.00;96739.81;5056416;28;20488;-40
2023/01/02 09:35:22;;;;;;;13.15;9.88;;;;;;;12.14;100.00;96729.13;5051471;28;20580;-42
2023/01/02 09:37:51;;;;;;;20.58;13.63;;;;;;;12.18;100.00;96728.69;5058629;28;20202;-41
2023/01/02 09:40:19;;;;;;;19.77;14.10;;;;;;;12.29;100.00;96712.63;5067000;28;20109;-42
2023/01/02 09:42:50;;;;;;;17.08;11.75;;;;;;;12.43;100.00;96713.91;5065241;28;20068;-39
2023/01/02 09:45:19;;;;;;;17.85;11.73;;;;;;;12.54;100.00;96718.97;5051008;28;20092;-40
2023/01/02 09:47:47;;;;;;;14.35;10.27;;;;;;;12.56;100.00;96717.03;5053634;28;20079;-41
2023/01/02 09:50:19;;;;;;;12.13;9.63;;;;;;;12.62;100.00;96722.69;5052561;28;20092;-47
2023/01/02 09:52:52;;;;;;;13.07;9.65;;;;;;;12.75;100.00;96720.50;5061312;28;20088;-38
2023/01/02 09:55:29;;;;;;;16.33;10.98;;;;;;;12.87;100.00;96729.03;5053564;28;20088;-41
2023/01/02 09:58:02;;;;;;;9.80;8.23;;;;;;;12.64;100.00;96736.59;5054858;28;20084;-39
2023/01/02 10:00:34;;;;;;;12.20;8.30;;;;;;;12.93;100.00;96726.59;5053114;28;20473;-43
2023/01/02 10:03:10;;;;;;;10.40;8.35;;;;;;;13.12;100.00;96720.31;5062511;28;20080;-42
2023/01/02 10:05:56;;;;;;;10.27;8.18;;;;;;;13.36;100.00;96709.09;5057839;28;20107;-43
2023/01/02 10:08:31;;;;;;;9.88;8.52;;;;;;;13.59;100.00;96708.56;5061545;28;20138;-42
2023/01/02 10:11:09;;;;;;;10.27;7.68;;;;;;;13.69;100.00;96720.69;5056192;28;20094;-39
2023/01/02 10:13:41;;;;;;;12.23;8.07;;;;;;;13.88;100.00;96714.34;5058526;28;20087;-38
2023/01/02 10:16:32;;;;;;;10.57;8.38;;;;;;;13.93;100.00;96711.19;5054359;28;20852;-40
2023/01/02 10:19:04;;;;;;;11.18;8.60;;;;;;;13.49;100.00;96709.50;5058460;28;20084;-46
2023/01/02 10:21:34;;;;;;;11.70;8.88;;;;;;;13.99;100.00;96715.88;5060445;28;20091;-38
2023/01/02 10:24:03;;;;;;;;;;;;;;;14.28;100.00;96698.72;5065278;28;20083;-43
2023/01/02 10:26:35;;;;;;;12.20;8.95;;;;;;;13.73;100.00;96698.22;5051090;28;19967;-38
2023/01/02 10:29:12;;;;;;;11.43;8.38;;;;;;;14.33;100.00;96683.16;5069853;28;20080;-43
2023/01/02 10:31:43;;;;;;;11.07;8.02;;;;;;;14.75;100.00;96690.22;5063153;28;20088;-43
2023/01/02 10:34:15;;;;;;;11.30;8.68;;;;;;;15.10;100.00;96700.50;5056564;28;20080;-43
2023/01/02 10:36:45;;;;;;;11.48;8.82;;;;;;;14.98;100.00;96696.53;5058301;28;20099;-39
2023/01/02 10:39:15;;;;;;;11.95;8.25;;;;;;;14.73;100.00;96679.78;5050580;28;20163;-38
2023/01/02 10:41:46;;;;;;;10.85;7.72;;;;;;;13.98;100.00;96671.81;5052179;28;20140;-42
2023/01/02 10:44:22;;;;;;;9.75;7.88;;;;;;;14.74;100.00;96660.19;5061998;28;20083;-39
2023/01/02 10:46:50;;;;;;;10.35;8.43;;;;;;;15.11;100.00;96664.16;5052604;28;20085;-45
2023/01/02 10:49:19;;;;;;;13.18;8.43;;;;;;;15.46;100.00;96665.59;5062949;28;20516;-40
2023/01/02 10:51:51;;;;;;;9.85;7.40;;;;;;;15.66;100.00;96653.59;5059121;28;20080;-38
2023/01/02 10:54:19;;;;;;;10.75;8.23;;;;;;;15.74;100.00;96642.09;5053420;28;20072;-39
2023/01/02 10:56:49;;;;;;;9.98;7.57;;;;;;;15.07;100.00;96645.09;5063089;28;20472;-40
2023/01/02 10:59:22;;;;;;;8.38;6.95;;;;;;;15.79;100.00;96649.56;5059138;28;20087;-38
2023/01/02 11:01:52;;;;;;;11.25;8.32;;;;;;;15.99;100.00;96639.34;5054673;28;20083;-42
2023/01/02 11:04:23;;;;;;;10.20;7.63;;;;;;;16.22;100.00;96648.19;5058100;28;20104;-43
2023/01/02 11:06:55;;;;;;;9.02;6.45;;;;;;;16.28;100.00;96652.81;5053239;28;20072;-38
2023/01/02 11:09:25;;;;;;;7.50;6.10;;;;;;;15.86;100.00;96680.63;5051719;28;20081;-41
2023/01/02 11:11:54;;;;;;;;;;;;;;;15.87;100.00;96676.97;5055502;28;20084;-40
2023/01/02 11:14:28;;;;;;;9.77;7.20;;;;;;;16.20;100.00;96668.81;5053260;28;19959;-44
2023/01/02 11:17:03;;;;;;;8.40;6.50;;;;;;;16.40;100.00;96660.41;5059266;28;20076;-42
2023/01/02 11:19:31;;;;;;;8.38;7.00;;;;;;;16.59;100.00;96657.28;5054601;28;20134;-38
2023/01/02 11:21:59;;;;;;;8.55;6.78;;;;;;;16.72;100.00;96662.00;5049533;28;20116;-43
2023/01/02 11:24:28;;;;;;;9.55;6.93;;;;;;;16.73;100.00;96656.50;5057186;28;20481;-41
2023/01/02 11:27:00;;;;;;;8.77;7.20;;;;;;;16.84;100.00;96655.28;5051298;28;20088;-42
2023/01/02 11:29:32;;;;;;;9.82;7.55;;;;;;;16.79;100.00;96660.31;5059119;28;20460;-39
2023/01/02 11:32:01;;;;;;;8.82;7.28;;;;;;;16.90;100.00;96661.75;5051762;28;20092;-47
2023/01/02 11:34:33;;;;;;;8.27;6.90;;;;;;;17.02;100.00;96654.97;5053140;28;20118;-46
2023/01/02 11:37:19;;;;;;;9.98;7.45;;;;;;;17.21;100.00;96662.47;5056733;28;20056;-40
2023/01/02 11:39:57;;;;;;;9.40;7.78;;;;;;;17.26;100.00;96659.25;5049806;28;20076;-38
2023/01/02 11:45:19;;;;;;;8.52;7.38;;;;;;;17.39;100.00;96655.94;5050661;28;20072;-40
2023/01/02 11:47:49;;;;;;;12.02;8.30;;;;;;;17.52;100.00;96656.16;5056758;28;20524;-40
2023/01/02 11:50:22;;;;;;;11.23;8.20;;;;;;;17.81;100.00;96651.84;5048730;28;20141;-42